Time;durP1;ratioP1;P1;durP2;ratioP2;P2;SDS_P1;SDS_P2;PMS_P1;PMS_P2;Temp;Humidity;BMP_temperature;BMP_pressure;BME280_temperature;BME280_humidity;BME280_pressure;Samples;Min_cycle;Max_cycle;Signal;HPM_P1;HPM_P2
2021/03/20 00:00:54;;;;;;;7.20;4.80;;;3.60;99.90;;;;;;5116189;27;20271;-76
2021/03/20 00:03:21;;;;;;;5.80;4.20;;;3.40;99.90;;;;;;5118588;27;20200;-77
2021/03/20 00:05:49;;;;;;;5.43;3.55;;;3.50;99.90;;;;;;5115964;27;20209;-76
2021/03/20 00:08:19;;;;;;;8.02;4.93;;;3.40;99.90;;;;;;5113975;27;20255;-78
2021/03/20 00:10:48;;;;;;;5.63;4.50;;;3.60;99.90;;;;;;5114570;27;20765;-78
2021/03/20 00:13:17;;;;;;;5.70;4.43;;;3.40;99.90;;;;;;5106253;27;20671;-77
2021/03/20 00:15:44;;;;;;;6.22;4.32;;;3.40;99.90;;;;;;5119539;27;20536;-76
2021/03/20 00:18:13;;;;;;;5.10;4.35;;;3.40;99.90;;;;;;5102370;27;20210;-78
2021/03/20 00:20:42;;;;;;;4.05;3.65;;;3.60;99.90;;;;;;5126261;27;20368;-79
2021/03/20 00:23:10;;;;;;;5.63;4.82;;;3.40;99.90;;;;;;5132131;27;20203;-76
2021/03/20 00:25:38;;;;;;;5.00;3.88;;;3.40;99.90;;;;;;5129643;27;20301;-79
2021/03/20 00:28:12;;;;;;;4.65;3.72;;;3.30;99.90;;;;;;5131114;27;20678;-79
2021/03/20 00:30:40;;;;;;;4.57;4.13;;;3.30;99.90;;;;;;5117278;27;20209;-78
2021/03/20 00:33:08;;;;;;;4.80;3.30;;;3.30;99.90;;;;;;5128562;27;20555;-78
2021/03/20 00:35:35;;;;;;;5.57;3.75;;;3.30;99.90;;;;;;5125268;27;20203;-76
2021/03/20 00:38:03;;;;;;;4.80;3.03;;;3.30;99.90;;;;;;5110159;27;20690;-79
2021/03/20 00:40:31;;;;;;;3.83;3.42;;;3.30;99.90;;;;;;5108747;27;20214;-77
2021/03/20 00:42:59;;;;;;;5.80;4.22;;;3.30;99.90;;;;;;5122280;27;20207;-78
2021/03/20 00:45:30;;;;;;;4.85;3.85;;;3.20;99.90;;;;;;5115165;27;20231;-78
2021/03/20 00:48:05;;;;;;;6.13;4.13;;;3.30;99.90;;;;;;5109418;27;20218;-79
2021/03/20 00:50:32;;;;;;;5.18;3.45;;;3.20;99.90;;;;;;5111186;27;20202;-77
2021/03/20 00:52:59;;;;;;;6.32;3.75;;;3.20;99.90;;;;;;5120636;27;20207;-78
2021/03/20 00:55:26;;;;;;;3.70;3.30;;;3.30;99.90;;;;;;5117254;27;20205;-75
2021/03/20 00:57:53;;;;;;;5.13;3.70;;;3.20;99.90;;;;;;5125904;27;20230;-77
2021/03/20 01:00:25;;;;;;;6.80;4.68;;;3.30;99.90;;;;;;5113031;27;20231;-78
2021/03/20 01:02:53;;;;;;;3.40;3.10;;;3.20;99.90;;;;;;5130347;27;20204;-79
2021/03/20 01:05:21;;;;;;;5.32;4.05;;;3.30;99.90;;;;;;5131346;27;21081;-78
2021/03/20 01:07:48;;;;;;;5.10;3.97;;;3.20;99.90;;;;;;5127541;27;20211;-78
2021/03/20 01:10:18;;;;;;;8.02;4.75;;;3.20;99.90;;;;;;5126314;27;20230;-78
2021/03/20 01:12:45;;;;;;;4.00;3.28;;;3.20;99.90;;;;;;5125596;27;20204;-78
2021/03/20 01:15:16;;;;;;;4.72;3.50;;;3.20;99.90;;;;;;5113797;27;20216;-79
2021/03/20 01:17:43;;;;;;;6.57;3.90;;;3.20;99.90;;;;;;5113954;27;20744;-79
2021/03/20 01:20:14;;;;;;;4.38;3.88;;;3.20;99.90;;;;;;5113469;27;20264;-81
2021/03/20 01:22:42;;;;;;;6.85;3.88;;;3.30;99.90;;;;;;5112549;27;20202;-79
2021/03/20 01:25:11;;;;;;;5.72;3.60;;;3.30;99.90;;;;;;5113538;27;20205;-78
2021/03/20 01:27:39;;;;;;;5.18;4.22;;;3.30;99.90;;;;;;5116408;27;20248;-79
2021/03/20 01:30:08;;;;;;;3.55;2.95;;;3.20;99.90;;;;;;5127685;27;20233;-79
2021/03/20 01:32:35;;;;;;;5.10;3.90;;;3.20;99.90;;;;;;5113519;27;20225;-78
2021/03/20 01:35:04;;;;;;;4.22;3.83;;;3.20;99.90;;;;;;5126223;27;20200;-80
2021/03/20 01:37:32;;;;;;;4.05;3.53;;;3.20;99.90;;;;;;5112019;27;21841;-80
2021/03/20 01:39:59;;;;;;;4.10;3.65;;;3.20;99.90;;;;;;5128200;27;20653;-79
2021/03/20 01:42:26;;;;;;;2.92;2.60;;;3.20;99.90;;;;;;5104012;27;20214;-78
2021/03/20 01:45:11;;;;;;;4.68;3.50;;;3.20;99.90;;;;;;5128230;27;20219;-78
2021/03/20 01:48:04;;;;;;;3.90;3.22;;;3.20;99.90;;;;;;5106124;27;20791;-78
2021/03/20 01:50:35;;;;;;;9.40;3.92;;;3.20;99.90;;;;;;5106009;27;20259;-80
2021/03/20 01:53:14;;;;;;;8.38;4.85;;;3.40;99.90;;;;;;5118360;27;20234;-79
2021/03/20 01:55:41;;;;;;;4.78;3.83;;;3.20;99.90;;;;;;5130742;27;20203;-79
2021/03/20 01:58:09;;;;;;;5.00;4.30;;;2.80;99.90;;;;;;5132423;27;20261;-80
2021/03/20 02:00:39;;;;;;;4.25;3.80;;;3.20;99.90;;;;;;5125121;27;20351;-79
2021/03/20 02:03:11;;;;;;;5.45;3.50;;;3.20;99.90;;;;;;5133666;27;20253;-79
2021/03/20 02:05:39;;;;;;;4.75;4.03;;;3.30;99.90;;;;;;5129493;27;20236;-80
2021/03/20 02:08:11;;;;;;;4.45;3.47;;;3.30;99.90;;;;;;5128428;27;20217;-79
2021/03/20 02:10:42;;;;;;;5.60;4.30;;;3.50;99.90;;;;;;5124950;27;20213;-78
2021/03/20 02:13:14;;;;;;;5.22;3.45;;;3.30;99.90;;;;;;5121852;27;20267;-79
2021/03/20 02:15:45;;;;;;;4.85;3.80;;;3.30;99.90;;;;;;5100885;27;20217;-79
2021/03/20 02:18:18;;;;;;;4.50;3.30;;;3.30;99.90;;;;;;5106498;27;20199;-79
2021/03/20 02:21:10;;;;;;;4.70;4.30;;;3.40;99.90;;;;;;5118128;27;20209;-79
2021/03/20 02:24:29;;;;;;;4.90;3.50;;;3.40;99.90;;;;;;5128012;27;20204;-78
2021/03/20 02:27:32;;;;;;;4.20;3.67;;;3.30;99.90;;;;;;5118877;27;20629;-78
2021/03/20 02:30:29;;;;;;;4.65;2.85;;;3.40;99.90;;;;;;5129995;27;20220;-79
2021/03/20 02:33:18;;;;;;;5.53;3.85;;;3.30;99.90;;;;;;5125598;27;20232;-79
2021/03/20 02:35:54;;;;;;;3.70;3.17;;;3.40;99.90;;;;;;5105881;27;20624;-79
2021/03/20 02:38:30;;;;;;;4.10;3.58;;;3.40;99.90;;;;;;5128006;27;20218;-79
2021/03/20 02:41:02;;;;;;;4.43;3.78;;;3.50;99.90;;;;;;5102534;27;20257;-80
2021/03/20 02:43:38;;;;;;;6.63;4.22;;;3.50;99.90;;;;;;5134321;27;20203;-79
2021/03/20 02:46:10;;;;;;;4.85;4.30;;;3.50;99.90;;;;;;5127516;27;20674;-78
2021/03/20 02:48:46;;;;;;;5.22;3.80;;;3.50;99.90;;;;;;5139706;27;20220;-78
2021/03/20 02:51:20;;;;;;;5.65;4.53;;;3.80;99.90;;;;;;5107951;27;20273;-80
2021/03/20 02:53:57;;;;;;;4.57;3.67;;;3.50;99.90;;;;;;5120939;27;20258;-77
2021/03/20 02:56:28;;;;;;;4.15;3.40;;;3.60;99.90;;;;;;5120772;27;20211;-80
2021/03/20 02:59:00;;;;;;;8.10;4.38;;;3.60;99.90;;;;;;5122319;27;20709;-80
2021/03/20 03:01:30;;;;;;;6.50;4.55;;;3.60;99.90;;;;;;5126615;27;20196;-79
2021/03/20 03:04:00;;;;;;;6.80;5.28;;;3.60;99.90;;;;;;5122532;27;20199;-77
2021/03/20 03:06:33;;;;;;;4.90;4.13;;;3.60;99.90;;;;;;5117417;27;20282;-77
2021/03/20 03:09:05;;;;;;;5.82;4.07;;;3.60;99.90;;;;;;5120562;27;20231;-76
2021/03/20 03:11:39;;;;;;;8.07;4.75;;;3.60;99.90;;;;;;5124698;27;20235;-79
2021/03/20 03:14:10;;;;;;;4.80;4.10;;;4.00;99.90;;;;;;5116983;27;20210;-78
2021/03/20 03:16:42;;;;;;;4.65;4.15;;;4.00;99.90;;;;;;5132843;27;20310;-80
2021/03/20 03:19:17;;;;;;;6.75;4.55;;;4.10;99.90;;;;;;5129965;27;20255;-79
2021/03/20 03:21:46;;;;;;;5.13;4.70;;;3.60;99.90;;;;;;5131954;27;20230;-80
2021/03/20 03:24:17;;;;;;;4.72;4.32;;;3.60;99.90;;;;;;5128550;27;20743;-77
2021/03/20 03:26:50;;;;;;;5.20;4.40;;;3.90;99.90;;;;;;5126117;27;20196;-79
2021/03/20 03:29:21;;;;;;;6.00;5.40;;;3.70;99.90;;;;;;5112138;28;20223;-81
2021/03/20 03:31:57;;;;;;;7.25;4.78;;;3.70;99.90;;;;;;5129881;27;20200;-79
2021/03/20 03:34:30;;;;;;;4.28;3.88;;;3.70;99.90;;;;;;5128603;27;20210;-76
2021/03/20 03:37:10;;;;;;;6.25;5.60;;;3.60;99.90;;;;;;5129708;27;20226;-77
2021/03/20 03:39:45;;;;;;;5.35;4.70;;;3.90;99.90;;;;;;5124316;27;20224;-78
2021/03/20 03:42:14;;;;;;;5.07;4.20;;;3.70;99.90;;;;;;5122208;27;20197;-77
2021/03/20 03:44:46;;;;;;;5.40;3.80;;;3.70;99.90;;;;;;5106345;28;20267;-78
2021/03/20 03:47:15;;;;;;;5.35;4.85;;;3.70;99.90;;;;;;5116881;27;20202;-79
2021/03/20 03:49:44;;;;;;;4.82;4.32;;;3.70;99.90;;;;;;5129952;27;20223;-80
2021/03/20 03:52:13;;;;;;;6.43;4.70;;;4.10;99.90;;;;;;5123157;27;20669;-78
2021/03/20 03:54:41;;;;;;;7.00;4.90;;;3.70;99.90;;;;;;5134134;27;20206;-79
2021/03/20 03:57:22;;;;;;;4.78;4.28;;;4.00;99.90;;;;;;5131468;27;20219;-79
2021/03/20 04:00:00;;;;;;;6.47;5.80;;;3.70;99.90;;;;;;5113446;27;20219;-78
2021/03/20 04:02:47;;;;;;;5.72;4.85;;;3.60;99.90;;;;;;5104074;27;20217;-78
2021/03/20 04:05:24;;;;;;;7.70;4.97;;;3.70;99.90;;;;;;5129363;27;20286;-79
2021/03/20 04:08:08;;;;;;;6.20;5.13;;;3.70;99.90;;;;;;5132226;27;20195;-79
2021/03/20 04:10:46;;;;;;;8.77;5.30;;;3.70;99.90;;;;;;5127408;27;20199;-78
2021/03/20 04:13:23;;;;;;;5.60;5.10;;;3.70;99.90;;;;;;5110521;27;20203;-79
2021/03/20 04:15:58;;;;;;;7.30;5.95;;;3.70;99.90;;;;;;5131012;27;20200;-79
2021/03/20 04:18:34;;;;;;;7.50;5.70;;;3.60;99.90;;;;;;5112763;27;20641;-78
2021/03/20 04:21:15;;;;;;;6.22;5.63;;;3.70;99.90;;;;;;5132982;27;20255;-79
2021/03/20 04:24:01;;;;;;;5.53;4.97;;;3.60;99.90;;;;;;5130241;27;20198;-79
2021/03/20 04:26:34;;;;;;;5.35;4.85;;;3.60;99.90;;;;;;5127046;27;20204;-81
2021/03/20 04:29:09;;;;;;;6.25;5.35;;;3.70;99.90;;;;;;5123085;27;20720;-78
2021/03/20 04:31:41;;;;;;;5.90;5.15;;;3.70;99.90;;;;;;5115424;27;20244;-76
2021/03/20 04:34:15;;;;;;;6.18;5.60;;;3.80;99.90;;;;;;5141233;27;20304;-78
2021/03/20 04:36:47;;;;;;;7.68;4.78;;;3.70;99.90;;;;;;5129466;27;20219;-78
2021/03/20 04:39:17;;;;;;;6.00;5.40;;;3.70;99.90;;;;;;5126490;27;20238;-79
2021/03/20 04:41:53;;;;;;;6.95;5.50;;;3.70;99.90;;;;;;5108319;27;20202;-78
2021/03/20 04:44:21;;;;;;;6.30;5.55;;;3.60;99.90;;;;;;5116992;27;20664;-79
2021/03/20 04:46:54;;;;;;;8.57;6.30;;;3.60;99.90;;;;;;5114719;27;20215;-79
2021/03/20 04:49:34;;;;;;;6.57;5.90;;;3.60;99.90;;;;;;5129797;27;20251;-79
2021/03/20 04:52:09;;;;;;;9.07;6.13;;;3.60;99.90;;;;;;5115740;27;20209;-81
2021/03/20 04:54:36;;;;;;;6.88;5.30;;;3.60;99.90;;;;;;5132634;27;20208;-79
2021/03/20 04:57:15;;;;;;;7.97;5.85;;;3.60;99.90;;;;;;5135515;27;20218;-80
2021/03/20 04:59:48;;;;;;;5.00;4.57;;;3.60;99.90;;;;;;5132230;27;20331;-81
2021/03/20 05:02:22;;;;;;;7.45;5.10;;;3.70;99.90;;;;;;5133533;27;20208;-81
2021/03/20 05:04:55;;;;;;;7.13;5.70;;;3.80;99.90;;;;;;5112868;27;20732;-79
2021/03/20 05:07:24;;;;;;;7.03;5.35;;;3.90;99.90;;;;;;5133880;27;20264;-81
2021/03/20 05:09:58;;;;;;;6.15;5.55;;;3.60;99.90;;;;;;5117338;27;20223;-82
2021/03/20 05:12:35;;;;;;;7.68;5.05;;;3.80;99.90;;;;;;5133268;27;20198;-80
2021/03/20 05:15:14;;;;;;;9.38;5.35;;;3.40;99.90;;;;;;5128533;27;20198;-79
2021/03/20 05:17:41;;;;;;;5.57;5.07;;;3.50;99.90;;;;;;5129114;27;20366;-78
2021/03/20 05:20:09;;;;;;;5.47;4.65;;;3.50;99.90;;;;;;5134139;27;20233;-78
2021/03/20 05:22:37;;;;;;;4.97;4.50;;;3.50;99.90;;;;;;5121987;27;20689;-79
2021/03/20 05:25:06;;;;;;;7.35;5.35;;;3.50;99.90;;;;;;5114644;27;20298;-78
2021/03/20 05:27:35;;;;;;;5.07;4.57;;;3.50;99.90;;;;;;5111153;27;20219;-78
2021/03/20 05:30:02;;;;;;;6.45;4.95;;;3.50;99.90;;;;;;5122188;27;20219;-80
2021/03/20 05:32:33;;;;;;;6.05;4.88;;;3.40;99.90;;;;;;5120076;27;20280;-78
2021/03/20 05:35:01;;;;;;;5.78;5.28;;;3.40;99.90;;;;;;5129713;27;20205;-80
2021/03/20 05:37:31;;;;;;;5.72;4.05;;;3.40;99.90;;;;;;5113996;27;20223;-80
2021/03/20 05:40:00;;;;;;;7.38;5.60;;;3.40;99.90;;;;;;5100826;27;20237;-79
2021/03/20 05:42:45;;;;;;;6.60;5.97;;;3.40;99.90;;;;;;5122428;27;20196;-78
2021/03/20 05:45:20;;;;;;;6.93;4.80;;;3.40;99.90;;;;;;5120026;27;20201;-79
2021/03/20 05:48:04;;;;;;;8.07;6.03;;;3.40;99.90;;;;;;5133553;27;20263;-81
2021/03/20 05:50:48;;;;;;;8.35;5.50;;;3.40;99.90;;;;;;5132432;27;20206;-81
2021/03/20 05:53:31;;;;;;;5.20;4.65;;;3.20;99.90;;;;;;5120059;27;20216;-79
2021/03/20 05:56:02;;;;;;;8.25;6.20;;;3.20;99.90;;;;;;5139558;27;20203;-78
2021/03/20 05:58:47;;;;;;;7.70;5.47;;;3.30;99.90;;;;;;5127892;27;20233;-80
2021/03/20 06:01:23;;;;;;;5.43;4.50;;;3.20;99.90;;;;;;5109033;27;20213;-79
2021/03/20 06:04:13;;;;;;;5.55;4.57;;;3.30;99.90;;;;;;5130188;27;20206;-79
2021/03/20 06:06:46;;;;;;;6.65;5.20;;;3.20;99.90;;;;;;5106520;28;20204;-80
2021/03/20 06:09:26;;;;;;;8.13;4.90;;;3.30;99.90;;;;;;5111646;27;20272;-79
2021/03/20 06:12:08;;;;;;;6.10;4.70;;;3.30;99.90;;;;;;5117742;27;20213;-81
2021/03/20 06:14:48;;;;;;;5.25;4.72;;;3.30;99.90;;;;;;5128471;27;20270;-80
2021/03/20 06:17:33;;;;;;;6.57;5.70;;;3.30;99.90;;;;;;5129307;27;20225;-81
2021/03/20 06:20:20;;;;;;;5.47;5.03;;;3.30;99.90;;;;;;5110498;27;20228;-81
2021/03/20 06:23:19;;;;;;;5.78;5.20;;;3.30;99.90;;;;;;5130247;27;20689;-80
2021/03/20 06:26:11;;;;;;;5.68;4.97;;;3.40;99.90;;;;;;5122944;27;20209;-81
2021/03/20 06:28:43;;;;;;;5.57;5.00;;;3.30;99.90;;;;;;5127360;27;20240;-79
2021/03/20 06:31:20;;;;;;;8.88;6.10;;;3.40;99.90;;;;;;5131792;27;20286;-79
2021/03/20 06:33:52;;;;;;;6.57;4.93;;;3.40;99.90;;;;;;5111633;27;20237;-79
2021/03/20 06:36:24;;;;;;;5.53;4.55;;;3.50;99.90;;;;;;5102242;27;20205;-77
2021/03/20 06:39:04;;;;;;;5.10;4.70;;;3.40;99.90;;;;;;5124607;27;20533;-81
2021/03/20 06:41:39;;;;;;;5.05;4.40;;;3.80;99.90;;;;;;5125443;27;20209;-80
2021/03/20 06:44:20;;;;;;;6.90;4.65;;;3.50;99.90;;;;;;5111700;27;20213;-79
2021/03/20 06:46:50;;;;;;;5.72;4.93;;;3.50;99.90;;;;;;5123578;27;20198;-79
2021/03/20 06:49:28;;;;;;;4.70;4.30;;;3.90;99.90;;;;;;5121913;27;20229;-80
2021/03/20 06:51:57;;;;;;;4.00;3.70;;;3.50;99.90;;;;;;5100916;27;20213;-80
2021/03/20 06:54:26;;;;;;;4.88;3.92;;;3.60;99.90;;;;;;5121332;27;20201;-77
2021/03/20 06:56:53;;;;;;;5.35;4.40;;;3.70;99.90;;;;;;5118186;27;20919;-78
2021/03/20 06:59:24;;;;;;;4.32;3.92;;;3.80;99.90;;;;;;5118879;27;20227;-80
2021/03/20 07:01:59;;;;;;;5.43;3.95;;;3.70;99.90;;;;;;5111796;27;20195;-79
2021/03/20 07:04:50;;;;;;;5.97;3.78;;;3.70;99.90;;;;;;5121800;27;20203;-78
2021/03/20 07:07:55;;;;;;;4.93;3.85;;;3.70;99.90;;;;;;5112163;28;22327;-83
2021/03/20 07:10:33;;;;;;;4.18;2.80;;;3.80;99.90;;;;;;5134807;27;20244;-77
2021/03/20 07:13:22;;;;;;;4.10;3.42;;;3.80;99.90;;;;;;5122008;27;20199;-75
2021/03/20 07:16:06;;;;;;;7.88;3.20;;;3.80;99.90;;;;;;5113760;27;20216;-77
2021/03/20 07:18:38;;;;;;;3.50;3.20;;;3.90;99.90;;;;;;5121781;28;20882;-79
2021/03/20 07:21:31;;;;;;;4.10;3.70;;;4.40;99.90;;;;;;5110505;27;20268;-77
2021/03/20 07:24:05;;;;;;;3.10;2.80;;;3.50;99.90;;;;;;5114984;27;20212;-77
2021/03/20 07:26:34;;;;;;;3.42;3.13;;;4.50;99.90;;;;;;5117204;27;20484;-78
2021/03/20 07:29:03;;;;;;;3.00;2.80;;;4.00;99.90;;;;;;5106332;27;20226;-77
2021/03/20 07:31:31;;;;;;;24.90;13.70;;;4.10;99.90;;;;;;5135662;27;20710;-77
2021/03/20 07:34:15;;;;;;;6.80;5.57;;;4.10;99.90;;;;;;5132884;27;20217;-77
2021/03/20 07:36:42;;;;;;;2.70;2.50;;;4.20;99.90;;;;;;5101223;27;20215;-77
2021/03/20 07:39:15;;;;;;;3.03;2.83;;;4.10;99.90;;;;;;5118643;27;20234;-77
2021/03/20 07:41:54;;;;;;;3.08;2.75;;;4.20;99.90;;;;;;5117200;27;20258;-77
2021/03/20 07:44:50;;;;;;;2.83;2.60;;;4.50;99.90;;;;;;5127152;27;20206;-76
2021/03/20 07:47:20;;;;;;;6.40;3.78;;;4.30;99.90;;;;;;5111342;27;20209;-78
2021/03/20 07:49:48;;;;;;;3.38;2.20;;;4.40;99.90;;;;;;5128088;27;20617;-78
2021/03/20 07:52:26;;;;;;;3.13;2.83;;;4.90;99.90;;;;;;5124158;27;20261;-77
2021/03/20 07:55:06;;;;;;;4.22;3.03;;;4.60;99.90;;;;;;5135481;27;20199;-77
2021/03/20 07:57:34;;;;;;;2.58;2.38;;;4.60;99.90;;;;;;5128101;27;20215;-78
2021/03/20 08:00:04;;;;;;;2.83;2.63;;;4.60;99.90;;;;;;5116279;27;20716;-77
2021/03/20 08:02:35;;;;;;;3.25;2.40;;;4.70;99.90;;;;;;5125114;27;20248;-77
2021/03/20 08:05:06;;;;;;;2.38;2.05;;;4.80;99.90;;;;;;5131104;27;20207;-78
2021/03/20 08:07:41;;;;;;;4.28;2.80;;;4.90;99.90;;;;;;5133020;27;20195;-77
2021/03/20 08:10:16;;;;;;;3.58;2.10;;;5.00;99.90;;;;;;5120600;27;20236;-76
2021/03/20 08:13:22;;;;;;;5.05;2.15;;;5.00;99.90;;;;;;5127870;27;20207;-78
2021/03/20 08:15:53;;;;;;;3.55;2.30;;;5.10;99.90;;;;;;5105022;27;20220;-78
2021/03/20 08:18:25;;;;;;;4.53;2.50;;;5.40;99.90;;;;;;5121288;27;20225;-78
2021/03/20 08:21:26;;;;;;;3.20;3.00;;;5.00;99.90;;;;;;5118118;27;20205;-78
2021/03/20 08:24:07;;;;;;;2.65;2.10;;;4.90;97.20;;;;;;5123794;27;20208;-79
2021/03/20 08:26:42;;;;;;;2.65;2.25;;;4.80;99.90;;;;;;5109103;27;20256;-76
2021/03/20 08:29:23;;;;;;;2.67;2.47;;;5.10;94.50;;;;;;5127636;27;20309;-78
2021/03/20 08:32:07;;;;;;;2.13;2.00;;;4.80;94.20;;;;;;5128871;27;20650;-79
2021/03/20 08:34:49;;;;;;;2.97;1.98;;;4.70;94.00;;;;;;5118815;27;20213;-78
2021/03/20 08:37:34;;;;;;;4.80;1.73;;;4.70;82.00;;;;;;5099004;27;20227;-80
2021/03/20 08:40:23;;;;;;;2.85;2.13;;;4.70;86.80;;;;;;5106294;27;20266;-80
2021/03/20 08:43:29;;;;;;;4.20;2.00;;;4.80;91.20;;;;;;5120098;27;20270;-79
2021/03/20 08:46:01;;;;;;;2.75;2.08;;;4.60;65.00;;;;;;5115288;27;20203;-83
2021/03/20 08:48:42;;;;;;;2.60;2.40;;;4.60;73.10;;;;;;5127565;27;20468;-81
2021/03/20 08:51:28;;;;;;;1.92;1.83;;;4.80;74.30;;;;;;5114285;27;20204;-83
2021/03/20 08:54:05;;;;;;;2.05;1.75;;;5.00;77.60;;;;;;5127988;27;20623;-81
2021/03/20 08:56:58;;;;;;;2.40;2.20;;;5.00;73.10;;;;;;5111120;27;20264;-81
2021/03/20 08:59:30;;;;;;;2.90;2.40;;;5.00;64.30;;;;;;5122966;27;20450;-79
2021/03/20 09:02:00;;;;;;;2.20;2.10;;;4.80;55.40;;;;;;5130432;27;20201;-79
2021/03/20 09:04:32;;;;;;;2.17;1.70;;;4.80;46.40;;;;;;5110545;27;20207;-79
2021/03/20 09:07:06;;;;;;;1.58;1.48;;;4.80;45.40;;;;;;5126850;27;20208;-79
2021/03/20 09:09:38;;;;;;;1.83;1.73;;;4.80;42.20;;;;;;5105130;27;20248;-78
2021/03/20 09:12:15;;;;;;;2.38;2.10;;;5.20;40.80;;;;;;5121512;27;20204;-79
2021/03/20 09:14:45;;;;;;;2.13;1.92;;;5.00;47.60;;;;;;5102170;27;20200;-78
2021/03/20 09:17:17;;;;;;;3.70;2.00;;;5.40;49.90;;;;;;5119646;27;20213;-79
2021/03/20 09:19:50;;;;;;;3.45;2.10;;;5.50;47.90;;;;;;5129307;27;20225;-75
2021/03/20 09:22:21;;;;;;;3.13;1.80;;;5.80;49.80;;;;;;5117825;27;20211;-80
2021/03/20 09:24:51;;;;;;;2.10;2.00;;;6.10;52.00;;;;;;5104345;27;20205;-78
2021/03/20 09:28:06;;;;;;;3.33;2.08;;;6.90;51.10;;;;;;5125577;27;20199;-78
2021/03/20 09:30:36;;;;;;;1.53;1.33;;;6.80;51.50;;;;;;5042761;28;20208;-78
2021/03/20 09:33:06;;;;;;;1.40;1.30;;;7.20;33.40;;;;;;5041670;28;20566;-77
2021/03/20 09:35:42;;;;;;;2.70;1.90;;;6.90;39.80;;;;;;5084854;27;20274;-78
2021/03/20 09:38:11;;;;;;;1.83;1.27;;;7.20;40.20;;;;;;5098696;27;20626;-75
2021/03/20 09:40:47;;;;;;;1.47;1.37;;;7.30;41.10;;;;;;5105983;27;20475;-78
2021/03/20 09:43:38;;;;;;;1.40;1.30;;;7.30;20.70;;;;;;5108990;27;20460;-76
2021/03/20 09:46:49;;;;;;;1.40;1.30;;;7.20;11.40;;;;;;5106836;27;20476;-78
2021/03/20 09:49:48;;;;;;;2.40;1.43;;;7.30;15.10;;;;;;5121624;27;20581;-77
2021/03/20 09:52:31;;;;;;;1.50;1.40;;;7.30;14.00;;;;;;5125794;27;20558;-75
2021/03/20 09:55:32;;;;;;;1.97;1.70;;;7.20;10.00;;;;;;5106565;27;20460;-77
2021/03/20 09:58:00;;;;;;;1.67;1.57;;;7.20;10.00;;;;;;5128119;27;20482;-76
2021/03/20 10:01:14;;;;;;;1.40;1.30;;;7.20;9.30;;;;;;5118887;27;20507;-79
2021/03/20 10:04:04;;;;;;;1.40;1.30;;;7.30;1.10;;;;;;5126229;27;20447;-77
2021/03/20 10:06:38;;;;;;;1.67;1.57;;;7.30;3.80;;;;;;5125541;27;20478;-77
2021/03/20 10:09:21;;;;;;;2.00;1.90;;;7.40;11.30;;;;;;5128157;27;20469;-77
2021/03/20 10:12:11;;;;;;;2.13;2.00;;;7.50;20.80;;;;;;5108238;27;20463;-77
2021/03/20 10:15:03;;;;;;;2.30;2.20;;;7.30;19.00;;;;;;5101129;27;20503;-75
2021/03/20 10:17:32;;;;;;;1.93;1.70;;;7.40;20.90;;;;;;5120086;27;21027;-77
2021/03/20 10:20:16;;;;;;;4.50;2.90;;;7.40;23.10;;;;;;5120959;27;20478;-73
2021/03/20 10:22:51;;;;;;;3.20;2.97;;;7.50;27.40;;;;;;5105176;27;20459;-76
2021/03/20 10:25:19;;;;;;;2.40;2.00;;;7.70;23.50;;;;;;5102200;27;20452;-74
2021/03/20 10:27:59;;;;;;;1.80;1.70;;;7.70;18.10;;;;;;5125512;27;20446;-76
2021/03/20 10:30:30;;;;;;;2.20;2.00;;;7.50;16.40;;;;;;5117138;27;21002;-77
2021/03/20 10:32:59;;;;;;;3.23;1.73;;;7.50;16.60;;;;;;5120794;27;21010;-78
2021/03/20 10:35:32;;;;;;;2.30;1.60;;;8.00;17.30;;;;;;5116478;27;20456;-75
2021/03/20 10:38:14;;;;;;;3.10;1.90;;;7.60;15.70;;;;;;5116670;27;20502;-78
2021/03/20 10:40:43;;;;;;;2.20;2.00;;;7.40;11.80;;;;;;5121882;27;20449;-77
2021/03/20 10:43:14;;;;;;;2.10;1.93;;;7.20;9.70;;;;;;5100453;27;20579;-75
2021/03/20 10:45:43;;;;;;;6.23;3.93;;;6.90;7.10;;;;;;5103005;27;20462;-77
2021/03/20 10:48:17;;;;;;;2.30;2.13;;;7.00;7.70;;;;;;5122318;27;20444;-77
2021/03/20 10:50:46;;;;;;;2.60;2.20;;;7.00;7.40;;;;;;5098196;27;20465;-77
2021/03/20 10:53:20;;;;;;;2.17;1.80;;;7.10;8.50;;;;;;5121480;27;20524;-77
2021/03/20 10:55:51;;;;;;;2.00;1.80;;;7.10;5.60;;;;;;5117594;27;20463;-76
2021/03/20 10:58:38;;;;;;;1.93;1.83;;;7.10;2.90;;;;;;5121183;27;20474;-78
2021/03/20 11:01:06;;;;;;;1.60;1.50;;;7.40;4.00;;;;;;5126349;27;20455;-78
2021/03/20 11:03:36;;;;;;;1.60;1.50;;;7.40;2.80;;;;;;5121932;27;21314;-80
2021/03/20 11:06:12;;;;;;;2.97;1.90;;;7.40;3.50;;;;;;5105529;27;20506;-77
2021/03/20 11:08:41;;;;;;;1.87;1.77;;;7.70;6.90;;;;;;5120824;27;20942;-78
2021/03/20 11:11:19;;;;;;;2.87;2.07;;;7.70;9.40;;;;;;5119159;27;20504;-78
2021/03/20 11:13:49;;;;;;;4.37;2.13;;;8.00;11.80;;;;;;5119477;27;20523;-76
2021/03/20 11:16:22;;;;;;;2.37;1.80;;;8.00;12.20;;;;;;5119911;28;20454;-77
2021/03/20 11:18:52;;;;;;;2.30;1.70;;;8.50;13.10;;;;;;5118613;27;20482;-78
2021/03/20 11:21:31;;;;;;;1.83;1.60;;;8.40;12.70;;;;;;5121096;27;20477;-79
2021/03/20 11:24:02;;;;;;;2.07;1.87;;;8.50;15.20;;;;;;5120625;28;20445;-78
2021/03/20 11:26:41;;;;;;;3.40;2.07;;;8.60;16.20;;;;;;5105141;28;20461;-78
2021/03/20 11:29:14;;;;;;;1.90;1.50;;;8.70;8.50;;;;;;5118158;27;20475;-80
2021/03/20 11:31:47;;;;;;;1.77;1.60;;;8.70;6.50;;;;;;5120926;27;20484;-77
2021/03/20 11:34:20;;;;;;;1.50;1.40;;;8.80;5.80;;;;;;5106667;28;20532;-78
2021/03/20 11:36:48;;;;;;;1.63;1.53;;;8.80;1.00;;;;;;5122398;28;20464;-80
2021/03/20 11:39:16;;;;;;;2.47;2.27;;;8.40;1.00;;;;;;5105627;28;20482;-76
2021/03/20 11:41:44;;;;;;;2.17;1.73;;;8.50;1.00;;;;;;5118406;28;20461;-78
2021/03/20 11:44:23;;;;;;;1.90;1.80;;;8.40;1.00;;;;;;5103102;28;20520;-77
2021/03/20 11:46:54;;;;;;;4.70;2.83;;;8.50;3.20;;;;;;5118321;28;20467;-78
2021/03/20 11:49:37;;;;;;;2.97;2.60;;;8.60;2.70;;;;;;5124032;28;20464;-78
2021/03/20 11:52:06;;;;;;;1.70;1.60;;;8.60;3.00;;;;;;5127772;28;20523;-77
2021/03/20 11:54:37;;;;;;;2.03;1.80;;;8.60;2.70;;;;;;5123296;28;20541;-76
2021/03/20 11:57:11;;;;;;;3.60;1.90;;;8.60;4.80;;;;;;5121243;27;21042;-78
2021/03/20 11:59:42;;;;;;;2.77;2.57;;;8.60;1.70;;;;;;5116350;28;20480;-80
2021/03/20 12:02:13;;;;;;;1.60;1.50;;;8.70;1.00;;;;;;5116320;28;20546;-78
2021/03/20 12:04:40;;;;;;;2.93;2.70;;;8.60;1.00;;;;;;5101787;28;20464;-80
2021/03/20 12:07:22;;;;;;;3.00;1.90;;;8.60;3.00;;;;;;5103538;27;20459;-78
2021/03/20 12:09:50;;;;;;;2.93;2.13;;;8.50;1.00;;;;;;5130670;27;20452;-77
2021/03/20 12:12:17;;;;;;;2.57;2.37;;;8.50;1.00;;;;;;5109368;27;20466;-78
2021/03/20 12:14:47;;;;;;;2.43;2.00;;;8.40;1.50;;;;;;5102806;27;20466;-78
2021/03/20 12:17:23;;;;;;;2.10;1.67;;;8.70;5.10;;;;;;5112293;27;20448;-77
2021/03/20 12:19:57;;;;;;;6.23;4.10;;;8.70;1.10;;;;;;5107306;27;20468;-76
2021/03/20 12:22:42;;;;;;;3.00;1.80;;;9.00;5.40;;;;;;5128979;27;20482;-80
2021/03/20 12:25:25;;;;;;;3.90;2.13;;;9.20;6.90;;;;;;5122923;27;20463;-76
2021/03/20 12:27:54;;;;;;;2.63;2.37;;;9.20;2.70;;;;;;5124276;27;20451;-78
2021/03/20 12:30:31;;;;;;;2.00;1.60;;;9.30;2.90;;;;;;5132734;27;20473;-81
2021/03/20 12:33:15;;;;;;;3.17;2.10;;;9.30;5.40;;;;;;5114107;27;20479;-79
2021/03/20 12:35:44;;;;;;;2.00;1.80;;;9.40;3.70;;;;;;5126492;27;20513;-79
2021/03/20 12:38:19;;;;;;;2.60;2.40;;;9.20;1.00;;;;;;5130516;27;21090;-80
2021/03/20 12:40:53;;;;;;;1.70;1.60;;;9.10;1.00;;;;;;5133222;27;20452;-78
2021/03/20 12:43:24;;;;;;;2.50;2.30;;;9.10;1.00;;;;;;5108591;27;20459;-79
2021/03/20 12:45:54;;;;;;;2.83;2.10;;;9.20;1.00;;;;;;5103851;27;20468;-79
2021/03/20 12:48:23;;;;;;;2.90;2.50;;;9.20;1.00;;;;;;5128627;27;20450;-76
2021/03/20 12:51:01;;;;;;;2.00;1.90;;;9.40;1.00;;;;;;5123414;27;21050;-80
2021/03/20 12:53:28;;;;;;;2.33;2.10;;;9.50;1.00;;;;;;5123828;27;20451;-80
2021/03/20 12:55:56;;;;;;;2.10;1.90;;;9.40;1.00;;;;;;5126895;27;20467;-80
2021/03/20 12:58:23;;;;;;;2.00;1.90;;;9.40;1.00;;;;;;5126819;27;20539;-79
2021/03/20 13:00:51;;;;;;;5.43;2.97;;;9.30;1.00;;;;;;5105443;27;20565;-77
2021/03/20 13:03:20;;;;;;;2.47;1.97;;;9.40;1.00;;;;;;5101974;27;20542;-79
2021/03/20 13:05:48;;;;;;;4.37;2.07;;;9.20;1.00;;;;;;5120513;27;20448;-78
2021/03/20 13:08:15;;;;;;;1.70;1.60;;;9.00;1.00;;;;;;5127036;27;20457;-77
2021/03/20 13:10:43;;;;;;;2.17;1.87;;;8.90;1.00;;;;;;5128838;27;20524;-77
2021/03/20 13:13:10;;;;;;;2.00;1.90;;;9.10;1.00;;;;;;5104467;27;20453;-77
2021/03/20 13:15:37;;;;;;;1.70;1.60;;;9.10;1.00;;;;;;5102784;27;20528;-79
2021/03/20 13:18:05;;;;;;;1.60;1.50;;;9.20;1.00;;;;;;5130023;27;20512;-76
2021/03/20 13:20:45;;;;;;;2.30;2.10;;;9.10;1.00;;;;;;5123306;27;20457;-81
2021/03/20 13:23:15;;;;;;;2.00;1.90;;;9.20;1.00;;;;;;5133053;27;20444;-81
2021/03/20 13:25:43;;;;;;;2.40;2.20;;;9.30;1.00;;;;;;5115082;27;20501;-83
2021/03/20 13:28:12;;;;;;;2.53;2.27;;;9.40;1.00;;;;;;5122870;27;20445;-80
2021/03/20 13:30:41;;;;;;;2.17;2.07;;;9.50;1.00;;;;;;5128490;27;20473;-80
2021/03/20 13:33:09;;;;;;;3.67;2.13;;;9.40;1.00;;;;;;5128108;27;20461;-81
2021/03/20 13:35:39;;;;;;;3.30;2.00;;;9.50;1.00;;;;;;5129541;27;20456;-79
2021/03/20 13:38:08;;;;;;;2.40;2.20;;;9.50;1.00;;;;;;5130744;27;20940;-79
2021/03/20 13:40:36;;;;;;;2.77;2.00;;;9.50;1.00;;;;;;5130409;27;20907;-81